Bernasconi, Argentina
Current Conditions -  °F | °C
As of 1:00 AM on Thursday 27 Nov 2014 (Local Time) from SAZN Reporting Station
Clear Clear  
Wind Chill: 55°   Ceiling: Unl
Heat Index: 55°   Visibility: 6mi
Dew Point: 45°   Wind: 2mph
Humidity: 67%   Direction: 290°WNW
Pressure: 29.91"   Gusts: NA
Location:  37.9°S, 63.72°W
Report Text: SAZN 270400Z 29002KT CAVOK 13/07 Q1013
Loading
Personal Weather Stations






























Interactive Weather Map New forecast layout! Learn more

10-Day Weather Forecast

Advertisements
Track Severe Weather on mobile